sensor_id;sensor_type;location;lat;lon;timestamp;temperature;humidity
63537;DHT22;49686;51.880;5.632;2022-08-19T00:01:31;15.10;99.90
63537;DHT22;49686;51.880;5.632;2022-08-19T00:04:05;15.00;99.90
63537;DHT22;49686;51.880;5.632;2022-08-19T00:06:34;15.00;99.90
63537;DHT22;49686;51.880;5.632;2022-08-19T00:09:01;15.00;99.90
63537;DHT22;49686;51.880;5.632;2022-08-19T00:11:32;15.00;99.90
63537;DHT22;49686;51.880;5.632;2022-08-19T00:14:03;15.00;99.90
63537;DHT22;49686;51.880;5.632;2022-08-19T00:16:32;15.10;99.90
63537;DHT22;49686;51.880;5.632;2022-08-19T00:19:00;15.10;99.90
63537;DHT22;49686;51.880;5.632;2022-08-19T00:21:26;15.10;99.90
63537;DHT22;49686;51.880;5.632;2022-08-19T00:23:54;15.00;99.90
63537;DHT22;49686;51.880;5.632;2022-08-19T00:26:22;14.90;99.90
63537;DHT22;49686;51.880;5.632;2022-08-19T00:28:49;14.90;99.90
63537;DHT22;49686;51.880;5.632;2022-08-19T00:31:16;14.80;99.90
63537;DHT22;49686;51.880;5.632;2022-08-19T00:33:45;14.80;99.90
63537;DHT22;49686;51.880;5.632;2022-08-19T00:36:12;14.80;99.90
63537;DHT22;49686;51.880;5.632;2022-08-19T00:38:39;14.80;99.90
63537;DHT22;49686;51.880;5.632;2022-08-19T00:41:07;14.70;99.90
63537;DHT22;49686;51.880;5.632;2022-08-19T00:43:36;14.70;99.90
63537;DHT22;49686;51.880;5.632;2022-08-19T00:46:02;14.70;99.90
63537;DHT22;49686;51.880;5.632;2022-08-19T00:48:31;14.70;99.90
63537;DHT22;49686;51.880;5.632;2022-08-19T00:51:00;14.70;99.90
63537;DHT22;49686;51.880;5.632;2022-08-19T00:53:29;14.60;99.90
63537;DHT22;49686;51.880;5.632;2022-08-19T00:55:59;14.50;99.90
63537;DHT22;49686;51.880;5.632;2022-08-19T00:58:31;14.40;99.90
63537;DHT22;49686;51.880;5.632;2022-08-19T01:00:59;14.50;99.90
63537;DHT22;49686;51.880;5.632;2022-08-19T01:03:27;14.40;99.90
63537;DHT22;49686;51.880;5.632;2022-08-19T01:05:54;14.40;99.90
63537;DHT22;49686;51.880;5.632;2022-08-19T01:08:23;14.50;99.90
63537;DHT22;49686;51.880;5.632;2022-08-19T01:10:52;14.50;99.90
63537;DHT22;49686;51.880;5.632;2022-08-19T01:13:25;14.50;99.90
63537;DHT22;49686;51.880;5.632;2022-08-19T01:15:57;14.40;99.90
63537;DHT22;49686;51.880;5.632;2022-08-19T01:18:32;14.40;99.90
63537;DHT22;49686;51.880;5.632;2022-08-19T01:21:09;14.30;99.90
63537;DHT22;49686;51.880;5.632;2022-08-19T01:23:38;14.10;99.90
63537;DHT22;49686;51.880;5.632;2022-08-19T01:26:05;14.20;99.90
63537;DHT22;49686;51.880;5.632;2022-08-19T01:28:33;14.10;99.90
63537;DHT22;49686;51.880;5.632;2022-08-19T01:31:12;14.10;99.90
63537;DHT22;49686;51.880;5.632;2022-08-19T01:33:54;14.10;99.90
63537;DHT22;49686;51.880;5.632;2022-08-19T01:36:24;13.90;99.90
63537;DHT22;49686;51.880;5.632;2022-08-19T01:38:55;13.90;99.90
63537;DHT22;49686;51.880;5.632;2022-08-19T01:41:24;13.90;99.90
63537;DHT22;49686;51.880;5.632;2022-08-19T01:43:54;13.80;99.90
63537;DHT22;49686;51.880;5.632;2022-08-19T01:46:43;13.80;99.90
63537;DHT22;49686;51.880;5.632;2022-08-19T01:49:10;13.70;99.90
63537;DHT22;49686;51.880;5.632;2022-08-19T01:51:37;13.70;99.90
63537;DHT22;49686;51.880;5.632;2022-08-19T01:54:10;13.80;99.90
63537;DHT22;49686;51.880;5.632;2022-08-19T01:56:38;13.80;99.90
63537;DHT22;49686;51.880;5.632;2022-08-19T01:59:08;13.80;99.90
63537;DHT22;49686;51.880;5.632;2022-08-19T02:01:37;13.70;99.90
63537;DHT22;49686;51.880;5.632;2022-08-19T02:04:04;13.70;99.90
63537;DHT22;49686;51.880;5.632;2022-08-19T02:06:31;13.70;99.90
63537;DHT22;49686;51.880;5.632;2022-08-19T02:08:58;13.80;99.90
63537;DHT22;49686;51.880;5.632;2022-08-19T02:11:28;13.80;99.90
63537;DHT22;49686;51.880;5.632;2022-08-19T02:13:55;13.80;99.90
63537;DHT22;49686;51.880;5.632;2022-08-19T02:16:23;13.70;99.90
63537;DHT22;49686;51.880;5.632;2022-08-19T02:18:51;13.70;99.90
63537;DHT22;49686;51.880;5.632;2022-08-19T02:21:22;13.70;99.90
63537;DHT22;49686;51.880;5.632;2022-08-19T02:23:50;13.60;99.90
63537;DHT22;49686;51.880;5.632;2022-08-19T02:26:17;13.60;99.90
63537;DHT22;49686;51.880;5.632;2022-08-19T02:28:45;13.70;99.90
63537;DHT22;49686;51.880;5.632;2022-08-19T02:31:19;13.60;99.90
63537;DHT22;49686;51.880;5.632;2022-08-19T02:33:47;13.50;99.90
63537;DHT22;49686;51.880;5.632;2022-08-19T02:36:16;13.40;99.90
63537;DHT22;49686;51.880;5.632;2022-08-19T02:38:47;13.60;99.90
63537;DHT22;49686;51.880;5.632;2022-08-19T02:41:25;13.50;99.90
63537;DHT22;49686;51.880;5.632;2022-08-19T02:43:54;13.50;99.90
63537;DHT22;49686;51.880;5.632;2022-08-19T02:46:44;13.50;99.90
63537;DHT22;49686;51.880;5.632;2022-08-19T02:49:11;13.60;99.90
63537;DHT22;49686;51.880;5.632;2022-08-19T02:51:42;13.50;99.90
63537;DHT22;49686;51.880;5.632;2022-08-19T02:54:10;13.40;99.90
63537;DHT22;49686;51.880;5.632;2022-08-19T02:56:40;13.30;99.90
63537;DHT22;49686;51.880;5.632;2022-08-19T02:59:08;13.20;99.90
63537;DHT22;49686;51.880;5.632;2022-08-19T03:01:39;13.20;99.90
63537;DHT22;49686;51.880;5.632;2022-08-19T03:04:07;13.20;99.90
63537;DHT22;49686;51.880;5.632;2022-08-19T03:06:38;13.10;99.90
63537;DHT22;49686;51.880;5.632;2022-08-19T03:09:06;13.20;99.90
63537;DHT22;49686;51.880;5.632;2022-08-19T03:11:33;13.30;99.90
63537;DHT22;49686;51.880;5.632;2022-08-19T03:14:00;13.40;99.90
63537;DHT22;49686;51.880;5.632;2022-08-19T03:16:34;13.40;99.90
63537;DHT22;49686;51.880;5.632;2022-08-19T03:19:08;13.30;99.90
63537;DHT22;49686;51.880;5.632;2022-08-19T03:21:37;13.30;99.90
63537;DHT22;49686;51.880;5.632;2022-08-19T03:24:06;13.20;99.90
63537;DHT22;49686;51.880;5.632;2022-08-19T03:26:34;13.40;99.90
63537;DHT22;49686;51.880;5.632;2022-08-19T03:29:08;13.40;99.90
63537;DHT22;49686;51.880;5.632;2022-08-19T03:31:39;13.50;99.90
63537;DHT22;49686;51.880;5.632;2022-08-19T03:34:21;13.40;99.90
63537;DHT22;49686;51.880;5.632;2022-08-19T03:36:48;13.40;99.90
63537;DHT22;49686;51.880;5.632;2022-08-19T03:39:17;13.30;99.90
63537;DHT22;49686;51.880;5.632;2022-08-19T03:41:46;13.40;99.90
63537;DHT22;49686;51.880;5.632;2022-08-19T03:44:16;13.30;99.90
63537;DHT22;49686;51.880;5.632;2022-08-19T03:46:48;13.30;99.90
63537;DHT22;49686;51.880;5.632;2022-08-19T03:49:15;13.30;99.90
63537;DHT22;49686;51.880;5.632;2022-08-19T03:51:45;13.20;99.90
63537;DHT22;49686;51.880;5.632;2022-08-19T03:54:17;13.20;99.90
63537;DHT22;49686;51.880;5.632;2022-08-19T03:56:46;13.20;99.90
63537;DHT22;49686;51.880;5.632;2022-08-19T03:59:16;13.20;99.90
63537;DHT22;49686;51.880;5.632;2022-08-19T04:01:44;13.10;99.90
63537;DHT22;49686;51.880;5.632;2022-08-19T04:04:12;13.00;99.90
63537;DHT22;49686;51.880;5.632;2022-08-19T04:06:39;12.90;99.90
63537;DHT22;49686;51.880;5.632;2022-08-19T04:09:10;12.90;99.90
63537;DHT22;49686;51.880;5.632;2022-08-19T04:11:40;12.80;99.90
63537;DHT22;49686;51.880;5.632;2022-08-19T04:14:10;12.90;99.90
63537;DHT22;49686;51.880;5.632;2022-08-19T04:16:38;12.80;99.90
63537;DHT22;49686;51.880;5.632;2022-08-19T04:19:05;12.80;99.90
63537;DHT22;49686;51.880;5.632;2022-08-19T04:21:34;12.60;99.90
63537;DHT22;49686;51.880;5.632;2022-08-19T04:24:02;12.60;99.90
63537;DHT22;49686;51.880;5.632;2022-08-19T04:26:32;12.60;99.90
63537;DHT22;49686;51.880;5.632;2022-08-19T04:29:00;12.70;99.90
63537;DHT22;49686;51.880;5.632;2022-08-19T04:31:29;12.70;99.90
63537;DHT22;49686;51.880;5.632;2022-08-19T04:33:58;12.60;99.90
63537;DHT22;49686;51.880;5.632;2022-08-19T04:36:27;12.60;99.90
63537;DHT22;49686;51.880;5.632;2022-08-19T04:39:01;12.60;99.90
63537;DHT22;49686;51.880;5.632;2022-08-19T04:41:30;12.60;99.90
63537;DHT22;49686;51.880;5.632;2022-08-19T04:43:57;12.50;99.90
63537;DHT22;49686;51.880;5.632;2022-08-19T04:46:30;12.50;99.90
63537;DHT22;49686;51.880;5.632;2022-08-19T04:49:17;12.40;99.90
63537;DHT22;49686;51.880;5.632;2022-08-19T04:51:45;12.50;99.90
63537;DHT22;49686;51.880;5.632;2022-08-19T04:54:18;12.50;99.90
63537;DHT22;49686;51.880;5.632;2022-08-19T04:57:06;12.50;99.90
63537;DHT22;49686;51.880;5.632;2022-08-19T04:59:34;12.60;99.90
63537;DHT22;49686;51.880;5.632;2022-08-19T05:02:01;12.70;99.90
63537;DHT22;49686;51.880;5.632;2022-08-19T05:04:29;12.70;99.90
63537;DHT22;49686;51.880;5.632;2022-08-19T05:06:55;12.70;99.90
63537;DHT22;49686;51.880;5.632;2022-08-19T05:09:29;12.80;99.90
63537;DHT22;49686;51.880;5.632;2022-08-19T05:12:16;12.80;99.90
63537;DHT22;49686;51.880;5.632;2022-08-19T05:14:43;13.00;99.90
63537;DHT22;49686;51.880;5.632;2022-08-19T05:17:10;12.90;99.90
63537;DHT22;49686;51.880;5.632;2022-08-19T05:19:54;12.80;99.90
63537;DHT22;49686;51.880;5.632;2022-08-19T05:22:21;12.90;99.90
63537;DHT22;49686;51.880;5.632;2022-08-19T05:24:50;12.90;99.90
63537;DHT22;49686;51.880;5.632;2022-08-19T05:27:37;13.00;99.90
63537;DHT22;49686;51.880;5.632;2022-08-19T05:30:05;13.00;99.90
63537;DHT22;49686;51.880;5.632;2022-08-19T05:32:32;13.00;99.90
63537;DHT22;49686;51.880;5.632;2022-08-19T05:34:59;13.00;99.90
63537;DHT22;49686;51.880;5.632;2022-08-19T05:37:26;13.00;99.90
63537;DHT22;49686;51.880;5.632;2022-08-19T05:39:57;13.00;99.90
63537;DHT22;49686;51.880;5.632;2022-08-19T05:42:25;13.20;99.90
63537;DHT22;49686;51.880;5.632;2022-08-19T05:44:53;13.40;99.90
63537;DHT22;49686;51.880;5.632;2022-08-19T05:47:20;13.50;99.90
63537;DHT22;49686;51.880;5.632;2022-08-19T05:49:48;13.80;99.90
63537;DHT22;49686;51.880;5.632;2022-08-19T05:52:15;14.20;99.90
63537;DHT22;49686;51.880;5.632;2022-08-19T05:54:45;14.30;99.90
63537;DHT22;49686;51.880;5.632;2022-08-19T05:57:18;14.50;99.90
63537;DHT22;49686;51.880;5.632;2022-08-19T05:59:48;14.60;99.90
63537;DHT22;49686;51.880;5.632;2022-08-19T06:02:19;14.50;99.90
63537;DHT22;49686;51.880;5.632;2022-08-19T06:04:46;14.70;99.90
63537;DHT22;49686;51.880;5.632;2022-08-19T06:07:13;14.80;99.90
63537;DHT22;49686;51.880;5.632;2022-08-19T06:09:41;14.90;99.90
63537;DHT22;49686;51.880;5.632;2022-08-19T06:12:26;15.00;99.90
63537;DHT22;49686;51.880;5.632;2022-08-19T06:14:54;15.00;99.90
63537;DHT22;49686;51.880;5.632;2022-08-19T06:17:27;15.00;99.90
63537;DHT22;49686;51.880;5.632;2022-08-19T06:19:55;15.20;99.90
63537;DHT22;49686;51.880;5.632;2022-08-19T06:22:22;15.30;99.90
63537;DHT22;49686;51.880;5.632;2022-08-19T06:24:48;15.30;99.90
63537;DHT22;49686;51.880;5.632;2022-08-19T06:27:16;15.50;99.90
63537;DHT22;49686;51.880;5.632;2022-08-19T06:29:45;15.60;99.90
63537;DHT22;49686;51.880;5.632;2022-08-19T06:32:13;15.80;99.90
63537;DHT22;49686;51.880;5.632;2022-08-19T06:34:41;15.80;99.90
63537;DHT22;49686;51.880;5.632;2022-08-19T06:37:08;16.40;99.90
63537;DHT22;49686;51.880;5.632;2022-08-19T06:39:37;17.60;99.90
63537;DHT22;49686;51.880;5.632;2022-08-19T06:42:06;17.60;99.90
63537;DHT22;49686;51.880;5.632;2022-08-19T06:44:37;17.70;99.90
63537;DHT22;49686;51.880;5.632;2022-08-19T06:47:13;18.10;99.90
63537;DHT22;49686;51.880;5.632;2022-08-19T06:49:54;17.50;99.90
63537;DHT22;49686;51.880;5.632;2022-08-19T06:52:27;17.20;99.90
63537;DHT22;49686;51.880;5.632;2022-08-19T06:54:54;16.90;99.90
63537;DHT22;49686;51.880;5.632;2022-08-19T06:57:23;16.80;99.90
63537;DHT22;49686;51.880;5.632;2022-08-19T06:59:50;17.00;99.90
63537;DHT22;49686;51.880;5.632;2022-08-19T07:02:19;16.30;99.90
63537;DHT22;49686;51.880;5.632;2022-08-19T07:04:46;16.20;99.90
63537;DHT22;49686;51.880;5.632;2022-08-19T07:07:15;16.60;99.90
63537;DHT22;49686;51.880;5.632;2022-08-19T07:09:47;17.00;99.90
63537;DHT22;49686;51.880;5.632;2022-08-19T07:12:27;16.80;99.90
63537;DHT22;49686;51.880;5.632;2022-08-19T07:14:56;16.60;99.90
63537;DHT22;49686;51.880;5.632;2022-08-19T07:17:25;16.90;99.90
63537;DHT22;49686;51.880;5.632;2022-08-19T07:19:53;16.80;99.90
63537;DHT22;49686;51.880;5.632;2022-08-19T07:22:21;17.10;99.90
63537;DHT22;49686;51.880;5.632;2022-08-19T07:24:49;16.90;99.90
63537;DHT22;49686;51.880;5.632;2022-08-19T07:27:18;16.70;99.90
63537;DHT22;49686;51.880;5.632;2022-08-19T07:29:51;17.00;99.90
63537;DHT22;49686;51.880;5.632;2022-08-19T07:32:25;16.80;99.90
63537;DHT22;49686;51.880;5.632;2022-08-19T07:34:52;16.30;99.90
63537;DHT22;49686;51.880;5.632;2022-08-19T07:37:18;16.60;99.90
63537;DHT22;49686;51.880;5.632;2022-08-19T07:39:47;17.10;99.90
63537;DHT22;49686;51.880;5.632;2022-08-19T07:42:14;16.80;99.90
63537;DHT22;49686;51.880;5.632;2022-08-19T07:44:41;17.70;99.90
63537;DHT22;49686;51.880;5.632;2022-08-19T07:47:17;17.30;99.90
63537;DHT22;49686;51.880;5.632;2022-08-19T07:50:08;17.90;99.90
63537;DHT22;49686;51.880;5.632;2022-08-19T07:52:36;17.90;99.90
63537;DHT22;49686;51.880;5.632;2022-08-19T07:55:05;17.50;99.90
63537;DHT22;49686;51.880;5.632;2022-08-19T07:57:53;18.20;99.90
63537;DHT22;49686;51.880;5.632;2022-08-19T08:00:20;18.90;99.90
63537;DHT22;49686;51.880;5.632;2022-08-19T08:02:50;19.80;99.90
63537;DHT22;49686;51.880;5.632;2022-08-19T08:05:23;20.20;99.90
63537;DHT22;49686;51.880;5.632;2022-08-19T08:07:50;19.50;99.90
63537;DHT22;49686;51.880;5.632;2022-08-19T08:10:17;20.40;99.90
63537;DHT22;49686;51.880;5.632;2022-08-19T08:12:47;19.20;99.90
63537;DHT22;49686;51.880;5.632;2022-08-19T08:15:35;19.30;99.90
63537;DHT22;49686;51.880;5.632;2022-08-19T08:18:09;20.40;99.90
63537;DHT22;49686;51.880;5.632;2022-08-19T08:20:37;20.00;99.90
63537;DHT22;49686;51.880;5.632;2022-08-19T08:23:04;19.80;99.90
63537;DHT22;49686;51.880;5.632;2022-08-19T08:25:32;19.70;99.90
63537;DHT22;49686;51.880;5.632;2022-08-19T08:28:01;22.10;99.90
63537;DHT22;49686;51.880;5.632;2022-08-19T08:30:29;21.80;99.90
63537;DHT22;49686;51.880;5.632;2022-08-19T08:32:59;21.40;99.90
63537;DHT22;49686;51.880;5.632;2022-08-19T08:35:28;20.30;99.90
63537;DHT22;49686;51.880;5.632;2022-08-19T08:37:57;18.50;99.90
63537;DHT22;49686;51.880;5.632;2022-08-19T08:40:28;19.90;99.90
63537;DHT22;49686;51.880;5.632;2022-08-19T08:43:00;19.10;99.90
63537;DHT22;49686;51.880;5.632;2022-08-19T08:45:28;19.30;99.90
63537;DHT22;49686;51.880;5.632;2022-08-19T08:48:15;20.20;99.90
63537;DHT22;49686;51.880;5.632;2022-08-19T08:50:51;19.10;99.90
63537;DHT22;49686;51.880;5.632;2022-08-19T08:53:25;19.00;99.90
63537;DHT22;49686;51.880;5.632;2022-08-19T08:56:02;19.30;99.90
63537;DHT22;49686;51.880;5.632;2022-08-19T08:58:39;19.00;99.90
63537;DHT22;49686;51.880;5.632;2022-08-19T09:01:10;18.10;99.90
63537;DHT22;49686;51.880;5.632;2022-08-19T09:03:39;17.30;99.90
63537;DHT22;49686;51.880;5.632;2022-08-19T09:06:14;17.10;99.90
63537;DHT22;49686;51.880;5.632;2022-08-19T09:08:52;17.40;99.90
63537;DHT22;49686;51.880;5.632;2022-08-19T09:11:35;17.90;99.90
63537;DHT22;49686;51.880;5.632;2022-08-19T09:14:15;18.40;99.90
63537;DHT22;49686;51.880;5.632;2022-08-19T09:17:08;19.40;99.90
63537;DHT22;49686;51.880;5.632;2022-08-19T09:19:35;18.50;99.90
63537;DHT22;49686;51.880;5.632;2022-08-19T09:22:02;17.90;99.90
63537;DHT22;49686;51.880;5.632;2022-08-19T09:24:31;17.90;99.90
63537;DHT22;49686;51.880;5.632;2022-08-19T09:26:58;18.50;99.90
63537;DHT22;49686;51.880;5.632;2022-08-19T09:29:32;19.50;99.90
63537;DHT22;49686;51.880;5.632;2022-08-19T09:31:59;19.40;99.90
63537;DHT22;49686;51.880;5.632;2022-08-19T09:34:26;19.20;99.90
63537;DHT22;49686;51.880;5.632;2022-08-19T09:36:53;19.40;99.90
63537;DHT22;49686;51.880;5.632;2022-08-19T09:39:21;19.00;99.90
63537;DHT22;49686;51.880;5.632;2022-08-19T09:41:50;20.00;99.90
63537;DHT22;49686;51.880;5.632;2022-08-19T09:44:18;19.20;99.90
63537;DHT22;49686;51.880;5.632;2022-08-19T09:46:46;19.60;99.90
63537;DHT22;49686;51.880;5.632;2022-08-19T09:49:12;19.50;99.90
63537;DHT22;49686;51.880;5.632;2022-08-19T09:51:40;20.20;99.90
63537;DHT22;49686;51.880;5.632;2022-08-19T09:54:07;20.10;99.90
63537;DHT22;49686;51.880;5.632;2022-08-19T09:56:37;19.90;99.90
63537;DHT22;49686;51.880;5.632;2022-08-19T09:59:06;19.60;99.90
63537;DHT22;49686;51.880;5.632;2022-08-19T10:01:33;21.40;99.90
63537;DHT22;49686;51.880;5.632;2022-08-19T10:04:00;20.80;99.90
63537;DHT22;49686;51.880;5.632;2022-08-19T10:06:35;21.20;99.90
63537;DHT22;49686;51.880;5.632;2022-08-19T10:09:14;21.40;99.90
63537;DHT22;49686;51.880;5.632;2022-08-19T10:11:44;20.10;99.90
63537;DHT22;49686;51.880;5.632;2022-08-19T10:14:21;21.00;99.90
63537;DHT22;49686;51.880;5.632;2022-08-19T10:16:49;19.50;99.90
63537;DHT22;49686;51.880;5.632;2022-08-19T10:19:16;20.10;99.90
63537;DHT22;49686;51.880;5.632;2022-08-19T10:21:52;21.00;99.90
63537;DHT22;49686;51.880;5.632;2022-08-19T10:24:19;20.80;99.90
63537;DHT22;49686;51.880;5.632;2022-08-19T10:26:46;21.10;99.90
63537;DHT22;49686;51.880;5.632;2022-08-19T10:29:13;21.20;99.90
63537;DHT22;49686;51.880;5.632;2022-08-19T10:32:00;20.40;99.90
63537;DHT22;49686;51.880;5.632;2022-08-19T10:34:30;22.20;99.90
63537;DHT22;49686;51.880;5.632;2022-08-19T10:36:59;22.60;99.90
63537;DHT22;49686;51.880;5.632;2022-08-19T10:39:28;20.90;99.90
63537;DHT22;49686;51.880;5.632;2022-08-19T10:41:57;21.10;99.90
63537;DHT22;49686;51.880;5.632;2022-08-19T10:44:25;21.30;99.90
63537;DHT22;49686;51.880;5.632;2022-08-19T10:47:06;22.80;99.90
63537;DHT22;49686;51.880;5.632;2022-08-19T10:49:52;21.40;99.90
63537;DHT22;49686;51.880;5.632;2022-08-19T10:52:23;21.40;99.90
63537;DHT22;49686;51.880;5.632;2022-08-19T10:54:58;22.10;99.90
63537;DHT22;49686;51.880;5.632;2022-08-19T10:57:31;22.50;99.90
63537;DHT22;49686;51.880;5.632;2022-08-19T11:00:19;20.70;99.90
63537;DHT22;49686;51.880;5.632;2022-08-19T11:02:48;21.40;99.90
63537;DHT22;49686;51.880;5.632;2022-08-19T11:05:15;20.00;99.90
63537;DHT22;49686;51.880;5.632;2022-08-19T11:07:43;21.30;99.90
63537;DHT22;49686;51.880;5.632;2022-08-19T11:10:12;20.50;99.90
63537;DHT22;49686;51.880;5.632;2022-08-19T11:12:46;21.00;99.90
63537;DHT22;49686;51.880;5.632;2022-08-19T11:15:14;20.90;99.90
63537;DHT22;49686;51.880;5.632;2022-08-19T11:17:41;20.90;99.90
63537;DHT22;49686;51.880;5.632;2022-08-19T11:20:10;21.30;99.90
63537;DHT22;49686;51.880;5.632;2022-08-19T11:22:38;21.30;99.90
63537;DHT22;49686;51.880;5.632;2022-08-19T11:25:09;21.40;99.90
63537;DHT22;49686;51.880;5.632;2022-08-19T11:27:38;21.40;99.90
63537;DHT22;49686;51.880;5.632;2022-08-19T11:30:07;21.60;99.90
63537;DHT22;49686;51.880;5.632;2022-08-19T11:32:38;20.80;99.90
63537;DHT22;49686;51.880;5.632;2022-08-19T11:35:06;21.50;99.90
63537;DHT22;49686;51.880;5.632;2022-08-19T11:37:34;21.40;99.90
63537;DHT22;49686;51.880;5.632;2022-08-19T11:40:04;22.00;99.90
63537;DHT22;49686;51.880;5.632;2022-08-19T11:42:32;22.30;99.90
63537;DHT22;49686;51.880;5.632;2022-08-19T11:45:01;21.90;99.90
63537;DHT22;49686;51.880;5.632;2022-08-19T11:47:28;21.90;99.90
63537;DHT22;49686;51.880;5.632;2022-08-19T11:49:56;22.50;99.90
63537;DHT22;49686;51.880;5.632;2022-08-19T11:52:22;23.20;99.90
63537;DHT22;49686;51.880;5.632;2022-08-19T11:54:51;21.90;99.90
63537;DHT22;49686;51.880;5.632;2022-08-19T11:57:18;22.30;99.90
63537;DHT22;49686;51.880;5.632;2022-08-19T11:59:48;22.60;99.90
63537;DHT22;49686;51.880;5.632;2022-08-19T12:02:15;22.80;99.90
63537;DHT22;49686;51.880;5.632;2022-08-19T12:04:43;22.70;99.90
63537;DHT22;49686;51.880;5.632;2022-08-19T12:07:10;22.40;99.90
63537;DHT22;49686;51.880;5.632;2022-08-19T12:09:37;22.80;99.90
63537;DHT22;49686;51.880;5.632;2022-08-19T12:12:10;23.70;99.90
63537;DHT22;49686;51.880;5.632;2022-08-19T12:14:37;23.50;99.90
63537;DHT22;49686;51.880;5.632;2022-08-19T12:17:04;22.50;99.90
63537;DHT22;49686;51.880;5.632;2022-08-19T12:19:32;22.50;99.90
63537;DHT22;49686;51.880;5.632;2022-08-19T12:21:59;22.80;99.90
63537;DHT22;49686;51.880;5.632;2022-08-19T12:24:26;24.30;99.90
63537;DHT22;49686;51.880;5.632;2022-08-19T12:26:54;24.30;99.90
63537;DHT22;49686;51.880;5.632;2022-08-19T12:29:28;22.30;99.90
63537;DHT22;49686;51.880;5.632;2022-08-19T12:31:56;22.00;99.90
63537;DHT22;49686;51.880;5.632;2022-08-19T12:34:23;23.60;99.90
63537;DHT22;49686;51.880;5.632;2022-08-19T12:36:50;24.30;99.90
63537;DHT22;49686;51.880;5.632;2022-08-19T12:39:17;23.70;99.90
63537;DHT22;49686;51.880;5.632;2022-08-19T12:41:44;24.10;99.90
63537;DHT22;49686;51.880;5.632;2022-08-19T12:44:21;23.50;99.90
63537;DHT22;49686;51.880;5.632;2022-08-19T12:46:59;23.10;99.90
63537;DHT22;49686;51.880;5.632;2022-08-19T12:49:27;24.20;99.90
63537;DHT22;49686;51.880;5.632;2022-08-19T12:52:14;25.30;99.90
63537;DHT22;49686;51.880;5.632;2022-08-19T12:54:44;23.30;99.90
63537;DHT22;49686;51.880;5.632;2022-08-19T12:57:11;23.70;99.90
63537;DHT22;49686;51.880;5.632;2022-08-19T12:59:39;24.60;99.90
63537;DHT22;49686;51.880;5.632;2022-08-19T13:02:07;23.70;99.90
63537;DHT22;49686;51.880;5.632;2022-08-19T13:04:34;22.00;99.90
63537;DHT22;49686;51.880;5.632;2022-08-19T13:07:02;22.30;99.90
63537;DHT22;49686;51.880;5.632;2022-08-19T13:09:30;23.00;99.90
63537;DHT22;49686;51.880;5.632;2022-08-19T13:11:57;22.80;99.90
63537;DHT22;49686;51.880;5.632;2022-08-19T13:14:23;21.80;99.90
63537;DHT22;49686;51.880;5.632;2022-08-19T13:16:53;22.40;99.90
63537;DHT22;49686;51.880;5.632;2022-08-19T13:19:21;22.20;99.90
63537;DHT22;49686;51.880;5.632;2022-08-19T13:21:49;21.70;99.90
63537;DHT22;49686;51.880;5.632;2022-08-19T13:24:26;21.30;99.90
63537;DHT22;49686;51.880;5.632;2022-08-19T13:26:59;21.50;99.90
63537;DHT22;49686;51.880;5.632;2022-08-19T13:29:26;22.00;99.90
63537;DHT22;49686;51.880;5.632;2022-08-19T13:31:53;21.70;99.90
63537;DHT22;49686;51.880;5.632;2022-08-19T13:34:28;22.30;99.90
63537;DHT22;49686;51.880;5.632;2022-08-19T13:36:58;22.40;99.90
63537;DHT22;49686;51.880;5.632;2022-08-19T13:39:25;22.50;99.90
63537;DHT22;49686;51.880;5.632;2022-08-19T13:41:51;23.20;99.90
63537;DHT22;49686;51.880;5.632;2022-08-19T13:44:19;22.60;99.90
63537;DHT22;49686;51.880;5.632;2022-08-19T13:46:47;22.00;99.90
63537;DHT22;49686;51.880;5.632;2022-08-19T13:49:14;22.50;99.90
63537;DHT22;49686;51.880;5.632;2022-08-19T13:51:43;22.70;99.90
63537;DHT22;49686;51.880;5.632;2022-08-19T13:54:11;22.20;99.90
63537;DHT22;49686;51.880;5.632;2022-08-19T13:56:40;21.80;99.90
63537;DHT22;49686;51.880;5.632;2022-08-19T13:59:11;21.30;99.90
63537;DHT22;49686;51.880;5.632;2022-08-19T14:01:38;21.50;99.90
63537;DHT22;49686;51.880;5.632;2022-08-19T14:04:06;21.70;99.90
63537;DHT22;49686;51.880;5.632;2022-08-19T14:06:34;21.60;99.90
63537;DHT22;49686;51.880;5.632;2022-08-19T14:09:02;21.40;99.90
63537;DHT22;49686;51.880;5.632;2022-08-19T14:11:29;21.20;99.90
63537;DHT22;49686;51.880;5.632;2022-08-19T14:13:57;21.40;99.90
63537;DHT22;49686;51.880;5.632;2022-08-19T14:16:24;21.70;99.90
63537;DHT22;49686;51.880;5.632;2022-08-19T14:18:50;21.80;99.90
63537;DHT22;49686;51.880;5.632;2022-08-19T14:21:20;22.10;99.90
63537;DHT22;49686;51.880;5.632;2022-08-19T14:23:50;22.20;99.90
63537;DHT22;49686;51.880;5.632;2022-08-19T14:26:19;21.90;99.90
63537;DHT22;49686;51.880;5.632;2022-08-19T14:28:47;21.90;99.90
63537;DHT22;49686;51.880;5.632;2022-08-19T14:31:16;22.00;99.90
63537;DHT22;49686;51.880;5.632;2022-08-19T14:33:43;21.60;99.90
63537;DHT22;49686;51.880;5.632;2022-08-19T14:36:10;21.50;99.90
63537;DHT22;49686;51.880;5.632;2022-08-19T14:38:37;21.50;99.90
63537;DHT22;49686;51.880;5.632;2022-08-19T14:41:13;21.60;99.90
63537;DHT22;49686;51.880;5.632;2022-08-19T14:43:42;21.30;99.90
63537;DHT22;49686;51.880;5.632;2022-08-19T14:46:09;21.10;99.90
63537;DHT22;49686;51.880;5.632;2022-08-19T14:48:36;21.30;99.90
63537;DHT22;49686;51.880;5.632;2022-08-19T14:51:08;21.40;99.90
63537;DHT22;49686;51.880;5.632;2022-08-19T14:53:35;21.70;99.90
63537;DHT22;49686;51.880;5.632;2022-08-19T14:56:07;21.30;99.90
63537;DHT22;49686;51.880;5.632;2022-08-19T14:58:35;22.20;99.90
63537;DHT22;49686;51.880;5.632;2022-08-19T15:01:07;21.70;99.90
63537;DHT22;49686;51.880;5.632;2022-08-19T15:03:34;21.40;99.90
63537;DHT22;49686;51.880;5.632;2022-08-19T15:06:03;20.80;99.90
63537;DHT22;49686;51.880;5.632;2022-08-19T15:08:32;20.50;99.90
63537;DHT22;49686;51.880;5.632;2022-08-19T15:11:01;20.00;99.90
63537;DHT22;49686;51.880;5.632;2022-08-19T15:13:29;19.00;99.90
63537;DHT22;49686;51.880;5.632;2022-08-19T15:15:56;18.70;99.90
63537;DHT22;49686;51.880;5.632;2022-08-19T15:18:27;18.60;99.90
63537;DHT22;49686;51.880;5.632;2022-08-19T15:20:54;18.70;99.90
63537;DHT22;49686;51.880;5.632;2022-08-19T15:23:21;18.80;99.90
63537;DHT22;49686;51.880;5.632;2022-08-19T15:25:48;18.90;99.90
63537;DHT22;49686;51.880;5.632;2022-08-19T15:28:18;19.10;99.90
63537;DHT22;49686;51.880;5.632;2022-08-19T15:30:45;19.10;99.90
63537;DHT22;49686;51.880;5.632;2022-08-19T15:33:12;19.20;99.90
63537;DHT22;49686;51.880;5.632;2022-08-19T15:35:41;19.20;99.90
63537;DHT22;49686;51.880;5.632;2022-08-19T15:38:08;19.50;99.90
63537;DHT22;49686;51.880;5.632;2022-08-19T15:40:37;19.80;99.90
63537;DHT22;49686;51.880;5.632;2022-08-19T15:43:04;19.70;99.90
63537;DHT22;49686;51.880;5.632;2022-08-19T15:45:30;19.90;99.90
63537;DHT22;49686;51.880;5.632;2022-08-19T15:47:58;19.80;99.90